sensor_id;sensor_type;location;lat;lon;timestamp;pressure;altitude;pressure_sealevel;temperature;humidity
15662;BME280;7931;52.274;10.470;2022-08-16T00:00:49;99652.66;;;20.25;100.00
15662;BME280;7931;52.274;10.470;2022-08-16T00:03:15;99651.66;;;20.26;100.00
15662;BME280;7931;52.274;10.470;2022-08-16T00:05:42;99653.19;;;20.42;100.00
15662;BME280;7931;52.274;10.470;2022-08-16T00:08:08;99652.72;;;20.32;100.00
15662;BME280;7931;52.274;10.470;2022-08-16T00:10:34;99649.69;;;20.13;100.00
15662;BME280;7931;52.274;10.470;2022-08-16T00:13:01;99639.72;;;20.20;100.00
15662;BME280;7931;52.274;10.470;2022-08-16T00:15:41;99640.38;;;20.22;100.00
15662;BME280;7931;52.274;10.470;2022-08-16T00:18:07;99639.97;;;20.25;100.00
15662;BME280;7931;52.274;10.470;2022-08-16T00:20:34;99637.72;;;20.29;100.00
15662;BME280;7931;52.274;10.470;2022-08-16T00:23:00;99644.25;;;20.41;100.00
15662;BME280;7931;52.274;10.470;2022-08-16T00:25:26;99650.50;;;20.42;100.00
15662;BME280;7931;52.274;10.470;2022-08-16T00:27:52;99647.47;;;20.23;100.00
15662;BME280;7931;52.274;10.470;2022-08-16T00:30:20;99655.44;;;20.32;100.00
15662;BME280;7931;52.274;10.470;2022-08-16T00:32:48;99665.19;;;20.33;100.00
15662;BME280;7931;52.274;10.470;2022-08-16T00:35:21;99660.81;;;20.32;100.00
15662;BME280;7931;52.274;10.470;2022-08-16T00:37:47;99658.13;;;20.32;100.00
15662;BME280;7931;52.274;10.470;2022-08-16T00:40:16;99659.94;;;20.24;100.00
15662;BME280;7931;52.274;10.470;2022-08-16T00:42:43;99656.63;;;20.29;100.00
15662;BME280;7931;52.274;10.470;2022-08-16T00:45:37;99660.16;;;20.29;100.00
15662;BME280;7931;52.274;10.470;2022-08-16T00:48:06;99653.25;;;20.20;100.00
15662;BME280;7931;52.274;10.470;2022-08-16T00:50:34;99665.56;;;20.29;100.00
15662;BME280;7931;52.274;10.470;2022-08-16T00:53:00;99664.41;;;20.39;100.00
15662;BME280;7931;52.274;10.470;2022-08-16T00:55:25;99664.25;;;20.19;100.00
15662;BME280;7931;52.274;10.470;2022-08-16T00:57:54;99664.00;;;20.14;100.00
15662;BME280;7931;52.274;10.470;2022-08-16T01:00:21;99658.31;;;20.02;100.00
15662;BME280;7931;52.274;10.470;2022-08-16T01:02:49;99665.66;;;19.87;100.00
15662;BME280;7931;52.274;10.470;2022-08-16T01:05:15;99664.66;;;19.88;100.00
15662;BME280;7931;52.274;10.470;2022-08-16T01:07:41;99667.41;;;19.94;100.00
15662;BME280;7931;52.274;10.470;2022-08-16T01:10:09;99665.56;;;19.73;100.00
15662;BME280;7931;52.274;10.470;2022-08-16T01:12:34;99656.22;;;19.55;100.00
15662;BME280;7931;52.274;10.470;2022-08-16T01:15:01;99657.13;;;19.62;100.00
15662;BME280;7931;52.274;10.470;2022-08-16T01:17:29;99661.53;;;19.48;100.00
15662;BME280;7931;52.274;10.470;2022-08-16T01:19:58;99661.53;;;19.48;100.00
15662;BME280;7931;52.274;10.470;2022-08-16T01:22:30;99666.34;;;19.31;100.00
15662;BME280;7931;52.274;10.470;2022-08-16T01:25:04;99672.25;;;19.41;100.00
15662;BME280;7931;52.274;10.470;2022-08-16T01:27:35;99665.25;;;19.47;100.00
15662;BME280;7931;52.274;10.470;2022-08-16T01:30:12;99672.56;;;19.53;100.00
15662;BME280;7931;52.274;10.470;2022-08-16T01:32:39;99667.47;;;19.58;100.00
15662;BME280;7931;52.274;10.470;2022-08-16T01:35:20;99677.88;;;19.61;100.00
15662;BME280;7931;52.274;10.470;2022-08-16T01:37:50;99664.09;;;19.56;100.00
15662;BME280;7931;52.274;10.470;2022-08-16T01:40:17;99672.88;;;19.58;100.00
15662;BME280;7931;52.274;10.470;2022-08-16T01:42:44;99676.44;;;19.44;100.00
15662;BME280;7931;52.274;10.470;2022-08-16T01:45:10;99672.31;;;19.48;100.00
15662;BME280;7931;52.274;10.470;2022-08-16T01:47:37;99683.31;;;19.25;100.00
15662;BME280;7931;52.274;10.470;2022-08-16T01:50:05;99682.47;;;19.24;100.00
15662;BME280;7931;52.274;10.470;2022-08-16T01:52:31;99682.72;;;19.30;100.00
15662;BME280;7931;52.274;10.470;2022-08-16T01:54:58;99687.56;;;19.34;100.00
15662;BME280;7931;52.274;10.470;2022-08-16T01:57:23;99693.22;;;19.39;100.00
15662;BME280;7931;52.274;10.470;2022-08-16T01:59:49;99687.81;;;19.39;100.00
15662;BME280;7931;52.274;10.470;2022-08-16T02:02:15;99689.84;;;19.37;100.00
15662;BME280;7931;52.274;10.470;2022-08-16T02:04:40;99695.81;;;19.33;100.00
15662;BME280;7931;52.274;10.470;2022-08-16T02:07:06;99695.81;;;19.33;100.00
15662;BME280;7931;52.274;10.470;2022-08-16T02:09:36;99687.09;;;19.31;100.00
15662;BME280;7931;52.274;10.470;2022-08-16T02:12:04;99694.16;;;19.32;100.00
15662;BME280;7931;52.274;10.470;2022-08-16T02:14:31;99696.22;;;19.30;100.00
15662;BME280;7931;52.274;10.470;2022-08-16T02:16:58;99699.28;;;19.26;100.00
15662;BME280;7931;52.274;10.470;2022-08-16T02:19:30;99693.63;;;19.21;100.00
15662;BME280;7931;52.274;10.470;2022-08-16T02:21:56;99702.59;;;19.07;100.00
15662;BME280;7931;52.274;10.470;2022-08-16T02:24:22;99693.94;;;19.12;100.00
15662;BME280;7931;52.274;10.470;2022-08-16T02:26:48;99701.81;;;19.13;100.00
15662;BME280;7931;52.274;10.470;2022-08-16T02:29:15;99692.78;;;19.21;100.00
15662;BME280;7931;52.274;10.470;2022-08-16T02:31:43;99695.09;;;19.24;100.00
15662;BME280;7931;52.274;10.470;2022-08-16T02:34:09;99696.75;;;19.40;100.00
15662;BME280;7931;52.274;10.470;2022-08-16T02:36:34;99692.84;;;19.27;100.00
15662;BME280;7931;52.274;10.470;2022-08-16T02:39:00;99694.53;;;19.29;100.00
15662;BME280;7931;52.274;10.470;2022-08-16T02:41:26;99703.28;;;19.31;100.00
15662;BME280;7931;52.274;10.470;2022-08-16T02:43:51;99693.97;;;19.33;100.00
15662;BME280;7931;52.274;10.470;2022-08-16T02:46:16;99693.88;;;19.26;100.00
15662;BME280;7931;52.274;10.470;2022-08-16T02:48:42;99697.88;;;19.31;100.00
15662;BME280;7931;52.274;10.470;2022-08-16T02:51:09;99697.13;;;19.37;100.00
15662;BME280;7931;52.274;10.470;2022-08-16T02:53:36;99699.88;;;19.43;100.00
15662;BME280;7931;52.274;10.470;2022-08-16T02:56:03;99682.53;;;19.31;100.00
15662;BME280;7931;52.274;10.470;2022-08-16T02:58:30;99688.69;;;19.25;100.00
15662;BME280;7931;52.274;10.470;2022-08-16T03:00:57;99689.44;;;19.19;100.00
15662;BME280;7931;52.274;10.470;2022-08-16T03:03:24;99688.22;;;19.21;100.00
15662;BME280;7931;52.274;10.470;2022-08-16T03:05:49;99687.94;;;19.31;100.00
15662;BME280;7931;52.274;10.470;2022-08-16T03:08:17;99690.53;;;19.39;100.00
15662;BME280;7931;52.274;10.470;2022-08-16T03:10:42;99690.38;;;19.26;100.00
15662;BME280;7931;52.274;10.470;2022-08-16T03:13:08;99693.88;;;19.26;100.00
15662;BME280;7931;52.274;10.470;2022-08-16T03:15:34;99691.66;;;19.30;100.00
15662;BME280;7931;52.274;10.470;2022-08-16T03:17:59;99691.75;;;19.22;100.00
15662;BME280;7931;52.274;10.470;2022-08-16T03:20:26;99693.63;;;19.21;100.00
15662;BME280;7931;52.274;10.470;2022-08-16T03:22:51;99692.25;;;19.11;100.00
15662;BME280;7931;52.274;10.470;2022-08-16T03:25:17;99682.31;;;19.11;100.00
15662;BME280;7931;52.274;10.470;2022-08-16T03:27:42;99689.28;;;19.06;100.00
15662;BME280;7931;52.274;10.470;2022-08-16T03:30:14;99692.09;;;18.97;100.00
15662;BME280;7931;52.274;10.470;2022-08-16T03:32:40;99696.47;;;18.84;100.00
15662;BME280;7931;52.274;10.470;2022-08-16T03:35:06;99693.56;;;18.85;100.00
15662;BME280;7931;52.274;10.470;2022-08-16T03:37:33;99694.44;;;18.86;100.00
15662;BME280;7931;52.274;10.470;2022-08-16T03:39:59;99691.34;;;18.89;100.00
15662;BME280;7931;52.274;10.470;2022-08-16T03:42:24;99688.47;;;18.75;100.00
15662;BME280;7931;52.274;10.470;2022-08-16T03:44:50;99691.44;;;18.81;100.00
15662;BME280;7931;52.274;10.470;2022-08-16T03:47:16;99700.94;;;18.77;100.00
15662;BME280;7931;52.274;10.470;2022-08-16T03:49:43;99694.59;;;18.55;100.00
15662;BME280;7931;52.274;10.470;2022-08-16T03:52:08;99690.22;;;18.54;100.00
15662;BME280;7931;52.274;10.470;2022-08-16T03:54:35;99683.88;;;18.46;100.00
15662;BME280;7931;52.274;10.470;2022-08-16T03:57:02;99691.88;;;18.55;100.00
15662;BME280;7931;52.274;10.470;2022-08-16T03:59:28;99693.56;;;18.56;100.00
15662;BME280;7931;52.274;10.470;2022-08-16T04:01:53;99697.81;;;18.50;100.00
15662;BME280;7931;52.274;10.470;2022-08-16T04:04:19;99696.97;;;18.35;100.00
15662;BME280;7931;52.274;10.470;2022-08-16T04:06:45;99703.47;;;18.26;100.00
15662;BME280;7931;52.274;10.470;2022-08-16T04:09:10;99705.06;;;18.35;100.00
15662;BME280;7931;52.274;10.470;2022-08-16T04:11:36;99713.34;;;18.48;100.00
15662;BME280;7931;52.274;10.470;2022-08-16T04:14:02;99703.63;;;18.62;100.00
15662;BME280;7931;52.274;10.470;2022-08-16T04:16:28;99707.75;;;18.35;100.00
15662;BME280;7931;52.274;10.470;2022-08-16T04:18:56;99705.25;;;18.33;100.00
15662;BME280;7931;52.274;10.470;2022-08-16T04:21:21;99704.78;;;18.30;100.00
15662;BME280;7931;52.274;10.470;2022-08-16T04:23:47;99695.66;;;18.31;100.00
15662;BME280;7931;52.274;10.470;2022-08-16T04:26:12;99707.03;;;18.03;100.00
15662;BME280;7931;52.274;10.470;2022-08-16T04:28:38;99703.16;;;18.06;100.00
15662;BME280;7931;52.274;10.470;2022-08-16T04:31:03;99702.94;;;18.07;100.00
15662;BME280;7931;52.274;10.470;2022-08-16T04:33:29;99709.66;;;18.11;100.00
15662;BME280;7931;52.274;10.470;2022-08-16T04:35:55;99712.25;;;18.05;100.00
15662;BME280;7931;52.274;10.470;2022-08-16T04:38:21;99710.97;;;18.15;100.00
15662;BME280;7931;52.274;10.470;2022-08-16T04:40:47;99712.44;;;18.18;100.00
15662;BME280;7931;52.274;10.470;2022-08-16T04:43:12;99712.00;;;18.14;100.00
15662;BME280;7931;52.274;10.470;2022-08-16T04:45:40;99712.75;;;18.23;100.00
15662;BME280;7931;52.274;10.470;2022-08-16T04:48:06;99716.75;;;18.27;100.00
15662;BME280;7931;52.274;10.470;2022-08-16T04:50:32;99725.03;;;18.40;100.00
15662;BME280;7931;52.274;10.470;2022-08-16T04:52:58;99726.16;;;18.46;100.00
15662;BME280;7931;52.274;10.470;2022-08-16T04:55:26;99732.72;;;18.66;100.00
15662;BME280;7931;52.274;10.470;2022-08-16T04:57:53;99735.84;;;18.55;100.00
15662;BME280;7931;52.274;10.470;2022-08-16T05:00:22;99741.22;;;18.55;100.00
15662;BME280;7931;52.274;10.470;2022-08-16T05:02:50;99743.28;;;18.53;100.00
15662;BME280;7931;52.274;10.470;2022-08-16T05:05:15;99740.88;;;18.58;100.00
15662;BME280;7931;52.274;10.470;2022-08-16T05:07:41;99743.56;;;18.58;100.00
15662;BME280;7931;52.274;10.470;2022-08-16T05:10:08;99736.72;;;18.85;100.00
15662;BME280;7931;52.274;10.470;2022-08-16T05:12:35;99744.09;;;18.77;100.00
15662;BME280;7931;52.274;10.470;2022-08-16T05:15:00;99745.34;;;18.81;100.00
15662;BME280;7931;52.274;10.470;2022-08-16T05:17:26;99752.81;;;18.79;100.00
15662;BME280;7931;52.274;10.470;2022-08-16T05:19:51;99749.56;;;18.83;100.00
15662;BME280;7931;52.274;10.470;2022-08-16T05:22:17;99751.41;;;18.97;100.00
15662;BME280;7931;52.274;10.470;2022-08-16T05:24:42;99751.59;;;19.25;100.00
15662;BME280;7931;52.274;10.470;2022-08-16T05:27:08;99753.75;;;19.15;100.00
15662;BME280;7931;52.274;10.470;2022-08-16T05:29:34;99755.22;;;19.03;100.00
15662;BME280;7931;52.274;10.470;2022-08-16T05:31:59;99756.59;;;19.14;100.00
15662;BME280;7931;52.274;10.470;2022-08-16T05:34:26;99764.13;;;19.18;100.00
15662;BME280;7931;52.274;10.470;2022-08-16T05:36:51;99760.22;;;19.36;100.00
15662;BME280;7931;52.274;10.470;2022-08-16T05:39:24;99766.91;;;19.40;100.00
15662;BME280;7931;52.274;10.470;2022-08-16T05:41:50;99766.91;;;19.40;100.00
15662;BME280;7931;52.274;10.470;2022-08-16T05:44:17;99767.66;;;19.34;100.00
15662;BME280;7931;52.274;10.470;2022-08-16T05:46:42;99773.63;;;19.44;100.00
15662;BME280;7931;52.274;10.470;2022-08-16T05:49:10;99769.41;;;19.41;100.00
15662;BME280;7931;52.274;10.470;2022-08-16T05:51:38;99774.59;;;19.43;100.00
15662;BME280;7931;52.274;10.470;2022-08-16T05:54:05;99772.19;;;19.63;100.00
15662;BME280;7931;52.274;10.470;2022-08-16T05:56:30;99778.56;;;19.76;100.00
15662;BME280;7931;52.274;10.470;2022-08-16T05:58:56;99785.41;;;19.94;100.00
15662;BME280;7931;52.274;10.470;2022-08-16T06:01:21;99789.16;;;19.93;100.00
15662;BME280;7931;52.274;10.470;2022-08-16T06:03:46;99794.34;;;20.16;100.00
15662;BME280;7931;52.274;10.470;2022-08-16T06:06:12;99788.34;;;20.42;100.00
15662;BME280;7931;52.274;10.470;2022-08-16T06:08:37;99782.28;;;20.40;100.00
15662;BME280;7931;52.274;10.470;2022-08-16T06:11:03;99786.75;;;20.26;100.00
15662;BME280;7931;52.274;10.470;2022-08-16T06:13:28;99793.97;;;20.19;100.00
15662;BME280;7931;52.274;10.470;2022-08-16T06:15:54;99796.53;;;20.27;100.00
15662;BME280;7931;52.274;10.470;2022-08-16T06:18:19;99797.16;;;20.29;100.00
15662;BME280;7931;52.274;10.470;2022-08-16T06:20:45;99798.06;;;20.36;100.00
15662;BME280;7931;52.274;10.470;2022-08-16T06:23:10;99804.06;;;20.32;100.00
15662;BME280;7931;52.274;10.470;2022-08-16T06:25:35;99805.97;;;20.59;100.00
15662;BME280;7931;52.274;10.470;2022-08-16T06:28:03;99812.03;;;20.89;100.00
15662;BME280;7931;52.274;10.470;2022-08-16T06:30:28;99802.78;;;20.77;100.00
15662;BME280;7931;52.274;10.470;2022-08-16T06:32:56;99806.75;;;21.09;100.00
15662;BME280;7931;52.274;10.470;2022-08-16T06:35:21;99807.16;;;21.13;100.00
15662;BME280;7931;52.274;10.470;2022-08-16T06:37:48;99814.34;;;21.27;100.00
15662;BME280;7931;52.274;10.470;2022-08-16T06:40:13;99814.22;;;21.35;100.00
15662;BME280;7931;52.274;10.470;2022-08-16T06:42:38;99829.69;;;21.48;100.00
15662;BME280;7931;52.274;10.470;2022-08-16T06:45:05;99810.22;;;21.31;100.00
15662;BME280;7931;52.274;10.470;2022-08-16T06:47:30;99817.81;;;21.55;100.00
15662;BME280;7931;52.274;10.470;2022-08-16T06:49:56;99818.66;;;21.56;100.00
15662;BME280;7931;52.274;10.470;2022-08-16T06:52:21;99817.28;;;21.73;100.00
15662;BME280;7931;52.274;10.470;2022-08-16T06:54:46;99828.75;;;21.75;100.00
15662;BME280;7931;52.274;10.470;2022-08-16T06:57:13;99833.38;;;21.88;100.00
15662;BME280;7931;52.274;10.470;2022-08-16T06:59:38;99833.38;;;21.95;100.00
15662;BME280;7931;52.274;10.470;2022-08-16T07:02:04;99841.72;;;21.93;100.00
15662;BME280;7931;52.274;10.470;2022-08-16T07:04:29;99837.19;;;22.07;100.00
15662;BME280;7931;52.274;10.470;2022-08-16T07:06:55;99838.91;;;22.21;100.00
15662;BME280;7931;52.274;10.470;2022-08-16T07:09:21;99843.06;;;22.17;100.00
15662;BME280;7931;52.274;10.470;2022-08-16T07:11:46;99843.50;;;22.27;100.00
15662;BME280;7931;52.274;10.470;2022-08-16T07:14:12;99840.19;;;22.25;100.00
15662;BME280;7931;52.274;10.470;2022-08-16T07:16:38;99839.38;;;22.45;100.00
15662;BME280;7931;52.274;10.470;2022-08-16T07:19:09;99838.53;;;22.57;100.00
15662;BME280;7931;52.274;10.470;2022-08-16T07:21:34;99840.22;;;22.58;100.00
15662;BME280;7931;52.274;10.470;2022-08-16T07:24:05;99842.50;;;22.62;100.00
15662;BME280;7931;52.274;10.470;2022-08-16T07:26:31;99841.88;;;22.79;100.00
15662;BME280;7931;52.274;10.470;2022-08-16T07:28:58;99845.03;;;22.90;100.00
15662;BME280;7931;52.274;10.470;2022-08-16T07:31:24;99846.47;;;22.99;100.00
15662;BME280;7931;52.274;10.470;2022-08-16T07:33:49;99841.47;;;22.96;98.38
15662;BME280;7931;52.274;10.470;2022-08-16T07:36:15;99848.13;;;23.00;100.00
15662;BME280;7931;52.274;10.470;2022-08-16T07:38:42;99847.72;;;23.03;94.47
15662;BME280;7931;52.274;10.470;2022-08-16T07:41:07;99849.81;;;23.01;94.07
15662;BME280;7931;52.274;10.470;2022-08-16T07:43:33;99847.47;;;23.11;94.54
15662;BME280;7931;52.274;10.470;2022-08-16T07:45:59;99841.63;;;23.27;92.18
15662;BME280;7931;52.274;10.470;2022-08-16T07:48:24;99844.94;;;23.29;94.09
15662;BME280;7931;52.274;10.470;2022-08-16T07:50:50;99848.75;;;23.22;90.20
15662;BME280;7931;52.274;10.470;2022-08-16T07:53:15;99849.28;;;23.44;90.61
15662;BME280;7931;52.274;10.470;2022-08-16T07:55:41;99859.97;;;23.45;90.65
15662;BME280;7931;52.274;10.470;2022-08-16T07:58:06;99857.59;;;23.62;89.92
15662;BME280;7931;52.274;10.470;2022-08-16T08:00:32;99863.91;;;23.56;88.17
15662;BME280;7931;52.274;10.470;2022-08-16T08:02:58;99857.59;;;23.62;87.58
15662;BME280;7931;52.274;10.470;2022-08-16T08:05:25;99860.31;;;23.62;84.07
15662;BME280;7931;52.274;10.470;2022-08-16T08:07:51;99870.13;;;23.63;83.60
15662;BME280;7931;52.274;10.470;2022-08-16T08:10:19;99873.06;;;23.68;81.93
15662;BME280;7931;52.274;10.470;2022-08-16T08:12:47;99872.03;;;23.69;81.45
15662;BME280;7931;52.274;10.470;2022-08-16T08:15:13;99874.94;;;23.74;81.06
15662;BME280;7931;52.274;10.470;2022-08-16T08:17:39;99869.88;;;23.84;81.86
15662;BME280;7931;52.274;10.470;2022-08-16T08:20:06;99871.31;;;23.94;81.00
15662;BME280;7931;52.274;10.470;2022-08-16T08:22:32;99874.38;;;24.04;79.47
15662;BME280;7931;52.274;10.470;2022-08-16T08:24:58;99878.34;;;24.08;79.73
15662;BME280;7931;52.274;10.470;2022-08-16T08:27:23;99871.56;;;24.24;78.54
15662;BME280;7931;52.274;10.470;2022-08-16T08:29:49;99874.41;;;24.35;77.01
15662;BME280;7931;52.274;10.470;2022-08-16T08:32:14;99864.72;;;24.46;76.75
15662;BME280;7931;52.274;10.470;2022-08-16T08:34:39;99877.50;;;24.46;75.54
15662;BME280;7931;52.274;10.470;2022-08-16T08:37:06;99875.41;;;24.48;75.19
15662;BME280;7931;52.274;10.470;2022-08-16T08:39:32;99868.81;;;24.62;75.28
15662;BME280;7931;52.274;10.470;2022-08-16T08:41:59;99869.41;;;24.89;74.21
15662;BME280;7931;52.274;10.470;2022-08-16T08:44:24;99875.81;;;24.76;70.41
15662;BME280;7931;52.274;10.470;2022-08-16T08:46:49;99877.03;;;25.05;71.87
15662;BME280;7931;52.274;10.470;2022-08-16T08:49:15;99880.31;;;25.14;70.46
15662;BME280;7931;52.274;10.470;2022-08-16T08:51:40;99870.81;;;25.23;69.27
15662;BME280;7931;52.274;10.470;2022-08-16T08:54:07;99879.09;;;25.53;69.85
15662;BME280;7931;52.274;10.470;2022-08-16T08:56:34;99883.94;;;25.88;66.98
15662;BME280;7931;52.274;10.470;2022-08-16T08:59:04;99889.28;;;26.13;64.96
15662;BME280;7931;52.274;10.470;2022-08-16T09:01:32;99884.22;;;26.17;63.09
15662;BME280;7931;52.274;10.470;2022-08-16T09:03:58;99879.44;;;26.12;62.12
15662;BME280;7931;52.274;10.470;2022-08-16T09:06:24;99891.28;;;26.36;62.17
15662;BME280;7931;52.274;10.470;2022-08-16T09:08:50;99883.03;;;26.54;61.56
15662;BME280;7931;52.274;10.470;2022-08-16T09:11:15;99890.94;;;26.74;61.43
15662;BME280;7931;52.274;10.470;2022-08-16T09:13:41;99882.13;;;26.72;59.07
15662;BME280;7931;52.274;10.470;2022-08-16T09:16:08;99889.78;;;26.94;58.92
15662;BME280;7931;52.274;10.470;2022-08-16T09:18:33;99888.50;;;27.08;58.46
15662;BME280;7931;52.274;10.470;2022-08-16T09:20:59;99878.88;;;27.17;57.21
15662;BME280;7931;52.274;10.470;2022-08-16T09:23:24;99881.81;;;27.51;57.11
15662;BME280;7931;52.274;10.470;2022-08-16T09:25:50;99878.44;;;27.84;56.50
15662;BME280;7931;52.274;10.470;2022-08-16T09:28:16;99879.78;;;28.10;54.81
15662;BME280;7931;52.274;10.470;2022-08-16T09:30:42;99875.88;;;28.06;54.40
15662;BME280;7931;52.274;10.470;2022-08-16T09:33:07;99875.69;;;27.84;53.90
15662;BME280;7931;52.274;10.470;2022-08-16T09:35:34;99880.06;;;27.97;52.74
15662;BME280;7931;52.274;10.470;2022-08-16T09:38:00;99876.09;;;28.04;53.30
15662;BME280;7931;52.274;10.470;2022-08-16T09:40:25;99879.00;;;28.55;52.26
15662;BME280;7931;52.274;10.470;2022-08-16T09:42:50;99878.09;;;28.66;50.69
15662;BME280;7931;52.274;10.470;2022-08-16T09:45:19;99875.41;;;28.37;50.73
15662;BME280;7931;52.274;10.470;2022-08-16T09:47:46;99876.09;;;28.45;50.19
15662;BME280;7931;52.274;10.470;2022-08-16T09:50:12;99876.91;;;28.45;50.73
15662;BME280;7931;52.274;10.470;2022-08-16T09:52:38;99879.22;;;28.36;50.32
15662;BME280;7931;52.274;10.470;2022-08-16T09:55:06;99886.00;;;28.79;50.54
15662;BME280;7931;52.274;10.470;2022-08-16T09:57:32;99884.94;;;28.97;48.54
15662;BME280;7931;52.274;10.470;2022-08-16T09:59:58;99878.91;;;29.34;47.84
15662;BME280;7931;52.274;10.470;2022-08-16T10:02:26;99878.19;;;29.22;48.13
15662;BME280;7931;52.274;10.470;2022-08-16T10:04:52;99873.59;;;29.27;49.21
15662;BME280;7931;52.274;10.470;2022-08-16T10:07:17;99869.28;;;29.31;49.49
15662;BME280;7931;52.274;10.470;2022-08-16T10:09:44;99867.22;;;29.22;47.84
15662;BME280;7931;52.274;10.470;2022-08-16T10:12:09;99872.88;;;29.15;46.19
15662;BME280;7931;52.274;10.470;2022-08-16T10:14:53;99870.94;;;29.32;47.08
15662;BME280;7931;52.274;10.470;2022-08-16T10:17:19;99876.91;;;29.29;46.73
15662;BME280;7931;52.274;10.470;2022-08-16T10:19:45;99881.03;;;29.49;46.17
15662;BME280;7931;52.274;10.470;2022-08-16T10:22:11;99877.13;;;29.44;46.76
15662;BME280;7931;52.274;10.470;2022-08-16T10:24:36;99879.03;;;29.44;45.92
15662;BME280;7931;52.274;10.470;2022-08-16T10:27:02;99880.41;;;30.07;44.89
15662;BME280;7931;52.274;10.470;2022-08-16T10:29:27;99872.84;;;29.92;44.71
15662;BME280;7931;52.274;10.470;2022-08-16T10:31:53;99883.25;;;29.90;44.64
15662;BME280;7931;52.274;10.470;2022-08-16T10:34:18;99877.66;;;30.07;45.55
15662;BME280;7931;52.274;10.470;2022-08-16T10:36:43;99874.34;;;30.54;44.88
15662;BME280;7931;52.274;10.470;2022-08-16T10:39:09;99880.75;;;30.65;44.29
15662;BME280;7931;52.274;10.470;2022-08-16T10:41:34;99876.63;;;30.94;43.55
15662;BME280;7931;52.274;10.470;2022-08-16T10:44:00;99890.88;;;30.86;41.47
15662;BME280;7931;52.274;10.470;2022-08-16T10:46:26;99889.69;;;30.77;42.88
15662;BME280;7931;52.274;10.470;2022-08-16T10:48:52;99882.13;;;30.94;42.61
15662;BME280;7931;52.274;10.470;2022-08-16T10:51:17;99880.19;;;30.90;42.09
15662;BME280;7931;52.274;10.470;2022-08-16T10:53:43;99885.69;;;30.90;42.26
15662;BME280;7931;52.274;10.470;2022-08-16T10:56:10;99894.31;;;31.09;43.32
15662;BME280;7931;52.274;10.470;2022-08-16T10:58:37;99888.81;;;30.44;43.83
15662;BME280;7931;52.274;10.470;2022-08-16T11:01:07;99890.94;;;30.69;41.83
15662;BME280;7931;52.274;10.470;2022-08-16T11:03:33;99900.00;;;30.38;41.80
15662;BME280;7931;52.274;10.470;2022-08-16T11:06:00;99890.34;;;30.62;41.93
15662;BME280;7931;52.274;10.470;2022-08-16T11:08:25;99890.47;;;31.05;42.91
15662;BME280;7931;52.274;10.470;2022-08-16T11:10:51;99891.25;;;31.00;42.26
15662;BME280;7931;52.274;10.470;2022-08-16T11:13:20;99887.22;;;31.18;40.83
15662;BME280;7931;52.274;10.470;2022-08-16T11:15:46;99886.66;;;31.11;41.81
15662;BME280;7931;52.274;10.470;2022-08-16T11:18:14;99893.97;;;31.37;40.67
15662;BME280;7931;52.274;10.470;2022-08-16T11:20:41;99891.41;;;31.68;39.66
15662;BME280;7931;52.274;10.470;2022-08-16T11:23:11;99886.97;;;30.82;41.41
15662;BME280;7931;52.274;10.470;2022-08-16T11:25:37;99896.78;;;30.73;41.25
15662;BME280;7931;52.274;10.470;2022-08-16T11:28:03;99893.81;;;30.26;43.09
15662;BME280;7931;52.274;10.470;2022-08-16T11:30:29;99886.25;;;30.65;43.44
15662;BME280;7931;52.274;10.470;2022-08-16T11:32:55;99886.97;;;30.82;43.18
15662;BME280;7931;52.274;10.470;2022-08-16T11:35:25;99884.38;;;31.03;42.36
15662;BME280;7931;52.274;10.470;2022-08-16T11:37:56;99890.72;;;31.40;41.11
15662;BME280;7931;52.274;10.470;2022-08-16T11:40:23;99886.56;;;31.38;40.76
15662;BME280;7931;52.274;10.470;2022-08-16T11:42:50;99893.22;;;31.05;41.15
15662;BME280;7931;52.274;10.470;2022-08-16T11:45:17;99892.44;;;30.77;42.40
15662;BME280;7931;52.274;10.470;2022-08-16T11:47:42;99896.69;;;30.90;41.18
15662;BME280;7931;52.274;10.470;2022-08-16T11:50:09;99890.88;;;30.86;41.87
15662;BME280;7931;52.274;10.470;2022-08-16T11:52:35;99890.72;;;31.40;41.50
15662;BME280;7931;52.274;10.470;2022-08-16T11:55:05;99893.75;;;31.39;41.82
15662;BME280;7931;52.274;10.470;2022-08-16T11:57:31;99885.84;;;31.53;42.06
15662;BME280;7931;52.274;10.470;2022-08-16T11:59:56;99890.44;;;31.94;40.96
15662;BME280;7931;52.274;10.470;2022-08-16T12:02:21;99894.81;;;31.85;40.74
15662;BME280;7931;52.274;10.470;2022-08-16T12:04:47;99893.38;;;31.72;40.64
15662;BME280;7931;52.274;10.470;2022-08-16T12:07:12;99891.16;;;31.69;40.06
15662;BME280;7931;52.274;10.470;2022-08-16T12:09:38;99890.22;;;32.06;41.15
15662;BME280;7931;52.274;10.470;2022-08-16T12:12:04;99890.75;;;31.98;40.44
15662;BME280;7931;52.274;10.470;2022-08-16T12:14:31;99899.13;;;31.76;41.37
15662;BME280;7931;52.274;10.470;2022-08-16T12:16:57;99889.13;;;32.07;41.32
15662;BME280;7931;52.274;10.470;2022-08-16T12:19:24;99896.97;;;31.78;41.13
15662;BME280;7931;52.274;10.470;2022-08-16T12:21:50;99897.97;;;31.14;42.33
15662;BME280;7931;52.274;10.470;2022-08-16T12:24:16;99889.03;;;30.97;42.06
15662;BME280;7931;52.274;10.470;2022-08-16T12:26:41;99894.09;;;31.15;42.10
15662;BME280;7931;52.274;10.470;2022-08-16T12:29:07;99890.72;;;31.40;40.52
15662;BME280;7931;52.274;10.470;2022-08-16T12:31:32;99890.81;;;31.61;39.92
15662;BME280;7931;52.274;10.470;2022-08-16T12:33:58;99898.94;;;31.83;40.19
15662;BME280;7931;52.274;10.470;2022-08-16T12:36:24;99892.56;;;31.77;40.42
15662;BME280;7931;52.274;10.470;2022-08-16T12:38:50;99887.97;;;31.93;39.70
15662;BME280;7931;52.274;10.470;2022-08-16T12:41:16;99884.91;;;31.89;39.73
15662;BME280;7931;52.274;10.470;2022-08-16T12:43:42;99890.25;;;32.11;39.30
15662;BME280;7931;52.274;10.470;2022-08-16T12:46:09;99896.97;;;32.66;39.01
15662;BME280;7931;52.274;10.470;2022-08-16T12:48:35;99896.16;;;32.66;38.78
15662;BME280;7931;52.274;10.470;2022-08-16T12:51:22;99898.59;;;32.57;39.18